createdAt,value
2022-11-16T00:01:27.165Z,99875.94
2022-11-16T00:03:55.948Z,99871.56
2022-11-16T00:06:23.587Z,99860.34
2022-11-16T00:09:12.627Z,99873.97
2022-11-16T00:11:39.512Z,99856.34
2022-11-16T00:14:06.587Z,99854.34
2022-11-16T00:16:33.383Z,99858.75
2022-11-16T00:19:02.770Z,99866.78
2022-11-16T00:21:30.005Z,99874.38
2022-11-16T00:23:56.727Z,99821.88
2022-11-16T00:26:24.013Z,99847.47
2022-11-16T00:28:51.739Z,99850.66
2022-11-16T00:31:18.696Z,99840.09
2022-11-16T00:33:45.119Z,99850.34
2022-11-16T00:36:13.048Z,99873.38
2022-11-16T00:38:40.066Z,99855.59
2022-11-16T00:41:06.786Z,99847.38
2022-11-16T00:43:34.328Z,99867.22
2022-11-16T00:46:00.887Z,99829.75
2022-11-16T00:48:27.442Z,99856.19
2022-11-16T00:50:54.194Z,99802.53
2022-11-16T00:53:21.006Z,99842.00
2022-11-16T00:55:48.046Z,99844.19
2022-11-16T00:58:15.331Z,99854.63
2022-11-16T01:00:42.308Z,99854.25
2022-11-16T01:03:08.654Z,99821.59
2022-11-16T01:05:35.022Z,99828.00
2022-11-16T01:08:01.443Z,99839.00
2022-11-16T01:10:28.426Z,99801.94
2022-11-16T01:12:55.670Z,99853.00
2022-11-16T01:15:23.654Z,99847.22
2022-11-16T01:17:50.611Z,99848.63
2022-11-16T01:20:19.682Z,99848.22
2022-11-16T01:22:46.714Z,99842.63
2022-11-16T01:25:14.412Z,99846.81
2022-11-16T01:27:42.342Z,99844.41
2022-11-16T01:30:10.707Z,99844.00
2022-11-16T01:32:37.244Z,99837.63
2022-11-16T01:35:04.618Z,99828.47
2022-11-16T01:37:31.269Z,99828.47
2022-11-16T01:39:57.675Z,99821.66
2022-11-16T01:42:26.525Z,99828.25
2022-11-16T01:45:15.681Z,99826.06
2022-11-16T01:47:42.038Z,99818.66
2022-11-16T01:50:16.535Z,99815.84
2022-11-16T01:52:48.324Z,99833.25
2022-11-16T01:55:14.791Z,99814.66
2022-11-16T01:57:43.136Z,99824.84
2022-11-16T02:00:11.085Z,99817.47
2022-11-16T02:02:37.438Z,99810.25
2022-11-16T02:05:04.713Z,99817.44
2022-11-16T02:08:13.242Z,99814.63
2022-11-16T02:10:48.852Z,99809.84
2022-11-16T02:13:30.310Z,99819.84
2022-11-16T02:16:24.419Z,99807.44
2022-11-16T02:19:03.575Z,99805.88
2022-11-16T02:21:38.010Z,99811.25
2022-11-16T02:24:34.755Z,99789.03
2022-11-16T02:27:28.416Z,99778.63
2022-11-16T02:29:55.735Z,99779.22
2022-11-16T02:32:32.098Z,99803.84
2022-11-16T02:35:06.671Z,99804.44
2022-11-16T02:37:36.508Z,99799.44
2022-11-16T02:40:03.807Z,99809.78
2022-11-16T02:42:38.150Z,99779.59
2022-11-16T02:45:06.802Z,99785.81
2022-11-16T02:47:34.522Z,99795.44
2022-11-16T02:50:08.812Z,99801.63
2022-11-16T02:52:36.000Z,99794.25
2022-11-16T02:55:02.427Z,99758.03
2022-11-16T02:57:34.018Z,99792.44
2022-11-16T03:00:00.610Z,99789.22
2022-11-16T03:02:42.203Z,99814.44
2022-11-16T03:05:31.783Z,99799.44
2022-11-16T03:08:06.815Z,99814.44
2022-11-16T03:10:55.302Z,99791.00
2022-11-16T03:13:24.130Z,99804.84
2022-11-16T03:15:50.943Z,99799.59
2022-11-16T03:18:18.015Z,99817.81
2022-11-16T03:20:44.424Z,99798.81
2022-11-16T03:23:11.820Z,99813.44
2022-11-16T03:25:49.098Z,99801.81
2022-11-16T03:28:21.843Z,99809.81
2022-11-16T03:30:59.823Z,99811.63
2022-11-16T03:33:30.946Z,99798.41
2022-11-16T03:36:10.118Z,99785.19
2022-11-16T03:38:37.836Z,99794.63
2022-11-16T03:41:07.519Z,99799.59
2022-11-16T03:43:34.580Z,99790.81
2022-11-16T03:46:01.048Z,99790.00
2022-11-16T03:48:38.533Z,99816.41
2022-11-16T03:51:05.882Z,99820.81
2022-11-16T03:53:32.250Z,99800.78
2022-11-16T03:55:58.598Z,99804.00
2022-11-16T03:58:24.979Z,99811.75
2022-11-16T04:00:51.394Z,99826.78
2022-11-16T04:03:17.779Z,99813.75
2022-11-16T04:06:02.939Z,99781.09
2022-11-16T04:08:47.976Z,99798.72
2022-11-16T04:11:51.125Z,99823.34
2022-11-16T04:14:40.087Z,99828.19
2022-11-16T04:17:30.147Z,99822.94
2022-11-16T04:20:14.998Z,99802.53
2022-11-16T04:23:09.569Z,99803.69
2022-11-16T04:25:35.912Z,99837.69
2022-11-16T04:28:16.100Z,99832.34
2022-11-16T04:31:03.880Z,99835.56
2022-11-16T04:33:49.311Z,99824.31
2022-11-16T04:36:34.444Z,99826.75
2022-11-16T04:39:00.880Z,99827.53
2022-11-16T04:41:45.970Z,99836.09
2022-11-16T04:44:12.326Z,99840.09
2022-11-16T04:46:57.418Z,99838.50
2022-11-16T04:49:23.789Z,99845.69
2022-11-16T04:51:50.164Z,99835.91
2022-11-16T04:54:16.525Z,99798.88
2022-11-16T04:56:42.923Z,99846.31
2022-11-16T04:59:09.297Z,99834.03
2022-11-16T05:02:04.902Z,99804.41
2022-11-16T05:04:31.282Z,99837.84
2022-11-16T05:06:57.698Z,99827.22
2022-11-16T05:09:24.104Z,99808.19
2022-11-16T05:11:50.667Z,99837.84
2022-11-16T05:14:17.054Z,99841.22
2022-11-16T05:16:43.621Z,99856.63
2022-11-16T05:19:28.606Z,99844.59
2022-11-16T05:21:54.958Z,99852.59
2022-11-16T05:24:33.392Z,99845.38
2022-11-16T05:27:11.849Z,99846.69
2022-11-16T05:29:38.429Z,99853.91
2022-11-16T05:32:05.490Z,99853.91
2022-11-16T05:34:31.877Z,99821.03
2022-11-16T05:36:58.536Z,99861.69
2022-11-16T05:39:25.440Z,99860.31
2022-11-16T05:41:52.309Z,99842.59
2022-11-16T05:44:18.991Z,99873.47
2022-11-16T05:46:45.553Z,99858.03
2022-11-16T05:49:13.097Z,99876.66
2022-11-16T05:51:40.652Z,99842.53
2022-11-16T05:54:07.133Z,99855.91
2022-11-16T05:56:34.903Z,99886.78
2022-11-16T05:59:01.583Z,99863.88
2022-11-16T06:01:27.973Z,99860.50
2022-11-16T06:03:54.477Z,99856.25
2022-11-16T06:06:20.987Z,99877.28
2022-11-16T06:08:47.406Z,99884.28
2022-11-16T06:11:13.972Z,99890.78
2022-11-16T06:13:40.452Z,99856.53
2022-11-16T06:16:07.213Z,99865.19
2022-11-16T06:18:37.053Z,99868.13
2022-11-16T06:21:03.447Z,99896.25
2022-11-16T06:23:29.889Z,99877.09
2022-11-16T06:25:56.506Z,99863.47
2022-11-16T06:28:23.418Z,99894.31
2022-11-16T06:30:49.974Z,99883.09
2022-11-16T06:33:16.715Z,99874.28
2022-11-16T06:35:43.211Z,99814.31
2022-11-16T06:38:09.574Z,99895.44
2022-11-16T06:40:37.749Z,99889.44
2022-11-16T06:43:04.297Z,99883.16
2022-11-16T06:45:30.655Z,99886.00
2022-11-16T06:47:57.007Z,99871.06
2022-11-16T06:50:23.356Z,99890.69
2022-11-16T06:52:49.904Z,99891.44
2022-11-16T06:55:16.697Z,99884.41
2022-11-16T06:57:43.599Z,99905.56
2022-11-16T07:00:11.029Z,99911.13
2022-11-16T07:02:38.599Z,99862.78
2022-11-16T07:05:06.167Z,99909.28
2022-11-16T07:07:33.004Z,99897.00
2022-11-16T07:09:59.475Z,99890.94
2022-11-16T07:12:26.561Z,99899.16
2022-11-16T07:14:53.172Z,99883.25
2022-11-16T07:17:19.528Z,99924.34
2022-11-16T07:19:45.991Z,99926.59
2022-11-16T07:22:12.348Z,99906.25
2022-11-16T07:24:38.733Z,99919.34
2022-11-16T07:27:05.310Z,99928.19
2022-11-16T07:29:31.691Z,99931.53
2022-11-16T07:31:58.053Z,99920.34
2022-11-16T07:34:24.460Z,99906.78
2022-11-16T07:36:50.811Z,99929.63
2022-11-16T07:39:17.222Z,99924.00
2022-11-16T07:41:44.260Z,99934.94
2022-11-16T07:44:12.243Z,99951.88
2022-11-16T07:46:47.846Z,99965.38
2022-11-16T07:49:16.156Z,99957.63
2022-11-16T07:51:42.899Z,99956.53
2022-11-16T07:54:12.375Z,99972.16
2022-11-16T07:56:38.742Z,99935.91
2022-11-16T07:59:05.994Z,99951.09
2022-11-16T08:01:33.302Z,99969.56
2022-11-16T08:04:01.655Z,99956.09
2022-11-16T08:06:29.880Z,99981.91
2022-11-16T08:08:58.883Z,99953.47
2022-11-16T08:11:26.014Z,99990.00
2022-11-16T08:13:52.438Z,99968.50
2022-11-16T08:16:21.115Z,99983.41
2022-11-16T08:18:47.832Z,99988.69
2022-11-16T08:21:15.524Z,100001.66
2022-11-16T08:23:42.159Z,99990.13
2022-11-16T08:26:16.775Z,100003.63
2022-11-16T08:28:44.666Z,99995.91
2022-11-16T08:31:18.859Z,100004.06
2022-11-16T08:33:45.540Z,99968.06
2022-11-16T08:36:17.083Z,100000.03
2022-11-16T08:38:48.167Z,99966.53
2022-11-16T08:41:15.574Z,99974.47
2022-11-16T08:43:42.488Z,99996.38
2022-11-16T08:46:10.368Z,100004.41
2022-11-16T08:48:37.672Z,100006.56
2022-11-16T08:51:20.752Z,100015.56
2022-11-16T08:53:48.896Z,100007.78
2022-11-16T08:56:17.073Z,100012.00
2022-11-16T08:58:44.261Z,99979.56
2022-11-16T09:01:18.973Z,100011.81
2022-11-16T09:03:45.553Z,99984.09
2022-11-16T09:06:12.613Z,100011.47
2022-11-16T09:08:40.736Z,99985.22
2022-11-16T09:11:09.101Z,100012.00
2022-11-16T09:13:35.478Z,100000.97
2022-11-16T09:16:02.115Z,99999.63
2022-11-16T09:18:29.392Z,100018.84
2022-11-16T09:20:56.020Z,100014.59
2022-11-16T09:23:25.595Z,100024.34
2022-11-16T09:25:52.749Z,99989.97
2022-11-16T09:28:19.562Z,100019.22
2022-11-16T09:30:47.009Z,100033.59
2022-11-16T09:33:13.457Z,100018.34
2022-11-16T09:35:40.116Z,100027.81
2022-11-16T09:38:06.671Z,100013.03
2022-11-16T09:40:35.745Z,100021.47
2022-11-16T09:43:42.566Z,100017.56
2022-11-16T09:46:17.787Z,100026.56
2022-11-16T09:48:44.450Z,100022.31
2022-11-16T09:51:14.495Z,99998.34
2022-11-16T09:54:02.715Z,100046.75
2022-11-16T09:56:31.644Z,100005.88
2022-11-16T09:59:18.087Z,100046.03
2022-11-16T10:01:59.839Z,100019.75
2022-11-16T10:04:29.126Z,100034.41
2022-11-16T10:07:15.175Z,100035.41
2022-11-16T10:09:42.424Z,100012.84
2022-11-16T10:12:27.112Z,100036.69
2022-11-16T10:15:01.273Z,100034.47
2022-11-16T10:17:37.222Z,99989.00
2022-11-16T10:20:06.478Z,100037.66
2022-11-16T10:23:04.668Z,100039.03
2022-11-16T10:25:44.855Z,100029.91
2022-11-16T10:28:32.467Z,100039.59
2022-11-16T10:31:17.260Z,100034.47
2022-11-16T10:33:44.931Z,100019.72
2022-11-16T10:36:14.271Z,100025.41
2022-11-16T10:38:42.054Z,100013.47
2022-11-16T10:41:24.507Z,99994.72
2022-11-16T10:43:50.866Z,99999.34
2022-11-16T10:46:21.619Z,100018.94
2022-11-16T10:48:56.102Z,99978.41
2022-11-16T10:51:22.689Z,100005.06
2022-11-16T10:53:49.501Z,100007.88
2022-11-16T10:56:21.222Z,100016.25
2022-11-16T10:58:54.924Z,100021.97
2022-11-16T11:01:32.254Z,100016.00
2022-11-16T11:04:22.679Z,100022.09
2022-11-16T11:06:53.112Z,100013.50
2022-11-16T11:09:28.860Z,100034.63
2022-11-16T11:12:18.744Z,100029.66
2022-11-16T11:15:25.534Z,100028.03
2022-11-16T11:18:20.323Z,100029.63
2022-11-16T11:20:50.214Z,100000.38
2022-11-16T11:23:25.489Z,100024.00
2022-11-16T11:25:57.087Z,100006.13
2022-11-16T11:28:31.656Z,100026.38
2022-11-16T11:31:07.379Z,99996.47
2022-11-16T11:33:36.455Z,99985.28
2022-11-16T11:36:07.774Z,99995.66
2022-11-16T11:38:35.166Z,100004.25
2022-11-16T11:41:05.011Z,99993.41
2022-11-16T11:43:33.555Z,100008.13
2022-11-16T11:46:07.214Z,100004.59
2022-11-16T11:48:47.693Z,100000.03
2022-11-16T11:51:21.179Z,99953.50
2022-11-16T11:53:53.426Z,99963.34
2022-11-16T11:56:20.063Z,99988.66
2022-11-16T11:58:47.259Z,99943.72
2022-11-16T12:01:35.589Z,99997.03
2022-11-16T12:04:08.012Z,99996.28
2022-11-16T12:06:43.768Z,99995.75
2022-11-16T12:09:47.592Z,99988.50
2022-11-16T12:12:36.026Z,99994.69
2022-11-16T12:15:08.689Z,100004.78
2022-11-16T12:17:42.220Z,99985.00
2022-11-16T12:20:27.282Z,100004.91
2022-11-16T12:23:04.343Z,99993.09
2022-11-16T12:25:44.498Z,99983.03
2022-11-16T12:28:23.307Z,100000.88
2022-11-16T12:31:01.805Z,99967.97
2022-11-16T12:33:45.475Z,99992.84
2022-11-16T12:36:23.703Z,99971.97
2022-11-16T12:39:24.802Z,99990.47
2022-11-16T12:42:06.999Z,99991.31
2022-11-16T12:44:42.451Z,99989.66
2022-11-16T12:47:49.448Z,99963.47
2022-11-16T12:50:29.656Z,99980.66
2022-11-16T12:53:06.546Z,99936.88
2022-11-16T12:55:59.071Z,99970.72
2022-11-16T12:58:39.738Z,99982.53
2022-11-16T13:01:30.809Z,99960.91
2022-11-16T13:04:01.642Z,99949.88
2022-11-16T13:06:32.556Z,99945.22
2022-11-16T13:09:25.602Z,99963.69
2022-11-16T13:12:01.645Z,99960.69
2022-11-16T13:14:30.254Z,99958.22
2022-11-16T13:16:57.451Z,99921.25
2022-11-16T13:19:24.238Z,99886.59
2022-11-16T13:22:02.667Z,99898.19
2022-11-16T13:24:44.374Z,99939.66
2022-11-16T13:27:41.551Z,99936.47
2022-11-16T13:30:19.510Z,99925.28
2022-11-16T13:33:18.864Z,99938.06
2022-11-16T13:35:45.323Z,99937.28
2022-11-16T13:38:13.270Z,99942.09
2022-11-16T13:40:40.140Z,99922.03
2022-11-16T13:43:09.512Z,99947.69
2022-11-16T13:45:42.692Z,99907.81
2022-11-16T13:48:25.178Z,99928.66
2022-11-16T13:50:56.865Z,99923.06
2022-11-16T13:54:32.636Z,99920.66
2022-11-16T13:56:16.290Z,99934.50
2022-11-16T13:58:49.097Z,99894.41
2022-11-16T14:01:16.253Z,99922.69
2022-11-16T14:03:46.841Z,99908.88
2022-11-16T14:06:13.099Z,99922.91
2022-11-16T14:08:39.375Z,99929.25
2022-11-16T14:11:28.390Z,99926.28
2022-11-16T14:13:54.911Z,99910.28
2022-11-16T14:16:21.534Z,99920.50
2022-11-16T14:18:59.109Z,99894.31
2022-11-16T14:21:33.114Z,99912.31
2022-11-16T14:24:21.271Z,99904.72
2022-11-16T14:27:09.468Z,99909.31
2022-11-16T14:30:11.253Z,99905.50
2022-11-16T14:32:44.674Z,99896.69
2022-11-16T14:35:26.113Z,99881.91
2022-11-16T14:38:01.033Z,99904.50
2022-11-16T14:40:27.615Z,99879.09
2022-11-16T14:43:17.208Z,99873.47
2022-11-16T14:45:47.511Z,99878.28
2022-11-16T14:48:21.813Z,99899.88
2022-11-16T14:51:11.552Z,99876.06
2022-11-16T14:53:42.039Z,99868.63
2022-11-16T14:56:14.034Z,99861.44
2022-11-16T14:58:44.056Z,99885.84
2022-11-16T15:01:14.008Z,99837.94
2022-11-16T15:03:54.184Z,99850.47
2022-11-16T15:06:21.366Z,99871.75
2022-11-16T15:09:02.989Z,99875.47
2022-11-16T15:11:59.059Z,99868.84
2022-11-16T15:14:28.275Z,99871.00
2022-11-16T15:16:56.610Z,99840.94
2022-11-16T15:19:23.953Z,99865.38
2022-11-16T15:21:55.138Z,99864.94
2022-11-16T15:24:31.772Z,99859.72
2022-11-16T15:27:25.821Z,99855.81
2022-11-16T15:29:52.267Z,99843.59
2022-11-16T15:32:18.768Z,99836.97
2022-11-16T15:34:51.767Z,99831.72
2022-11-16T15:37:29.791Z,99846.91
2022-11-16T15:39:58.100Z,99825.44
2022-11-16T15:42:25.790Z,99843.78
2022-11-16T15:44:52.378Z,99792.69
2022-11-16T15:47:19.404Z,99825.00
2022-11-16T15:49:49.505Z,99822.69
2022-11-16T15:52:42.575Z,99817.66
2022-11-16T15:55:23.828Z,99796.00
2022-11-16T15:58:18.475Z,99802.19
2022-11-16T16:00:47.548Z,99784.97
2022-11-16T16:03:27.583Z,99795.13
2022-11-16T16:05:54.903Z,99784.75
2022-11-16T16:08:28.594Z,99787.38
2022-11-16T16:10:59.357Z,99744.84
2022-11-16T16:13:29.366Z,99778.50
2022-11-16T16:16:11.777Z,99790.44
2022-11-16T16:18:44.692Z,99764.91
2022-11-16T16:21:12.604Z,99779.16
2022-11-16T16:23:53.757Z,99760.09
2022-11-16T16:26:20.640Z,99790.59
2022-11-16T16:28:47.537Z,99783.84
2022-11-16T16:31:14.602Z,99794.41
2022-11-16T16:33:41.156Z,99763.19
2022-11-16T16:36:08.002Z,99779.34
2022-11-16T16:38:34.368Z,99739.72
2022-11-16T16:41:02.600Z,99778.94
2022-11-16T16:43:29.710Z,99761.31
2022-11-16T16:45:56.528Z,99771.75
2022-11-16T16:48:22.919Z,99757.13
2022-11-16T16:50:49.308Z,99730.47
2022-11-16T16:53:15.700Z,99753.09
2022-11-16T16:55:43.156Z,99756.13
2022-11-16T16:58:13.441Z,99769.09
2022-11-16T17:00:40.818Z,99750.66
2022-11-16T17:03:07.217Z,99754.13
2022-11-16T17:05:33.973Z,99748.78
2022-11-16T17:08:00.833Z,99748.94
2022-11-16T17:10:27.209Z,99753.53
2022-11-16T17:12:54.433Z,99696.22
2022-11-16T17:15:21.870Z,99744.34
2022-11-16T17:17:48.256Z,99746.50
2022-11-16T17:20:16.080Z,99734.47
2022-11-16T17:22:43.435Z,99734.81
2022-11-16T17:25:10.523Z,99730.38
2022-11-16T17:27:36.880Z,99697.66
2022-11-16T17:30:04.219Z,99695.69
2022-11-16T17:32:30.617Z,99757.03
2022-11-16T17:34:56.975Z,99708.63
2022-11-16T17:37:23.358Z,99761.94
2022-11-16T17:39:49.736Z,99749.72
2022-11-16T17:42:16.116Z,99718.63
2022-11-16T17:44:42.498Z,99724.31
2022-11-16T17:47:09.299Z,99715.41
2022-11-16T17:49:35.671Z,99749.16
2022-11-16T17:52:02.204Z,99686.25
2022-11-16T17:54:28.577Z,99730.75
2022-11-16T17:56:55.035Z,99666.38
2022-11-16T17:59:26.432Z,99729.69
2022-11-16T18:01:55.475Z,99721.03
2022-11-16T18:04:21.845Z,99680.38
2022-11-16T18:06:48.348Z,99705.59
2022-11-16T18:09:14.738Z,99681.91
2022-11-16T18:11:41.543Z,99715.59
2022-11-16T18:14:08.019Z,99704.00
2022-11-16T18:16:34.570Z,99707.31
2022-11-16T18:19:03.416Z,99726.44
2022-11-16T18:21:30.066Z,99725.25
2022-11-16T18:23:58.796Z,99717.94
2022-11-16T18:26:25.481Z,99720.03
2022-11-16T18:28:52.532Z,99719.31
2022-11-16T18:31:21.171Z,99697.84
2022-11-16T18:33:49.156Z,99670.00
2022-11-16T18:36:15.877Z,99725.72
2022-11-16T18:38:42.285Z,99672.00
2022-11-16T18:41:11.551Z,99718.22
2022-11-16T18:43:38.799Z,99679.72
2022-11-16T18:46:05.495Z,99639.81
2022-11-16T18:48:32.208Z,99695.53
2022-11-16T18:51:03.343Z,99683.81
2022-11-16T18:53:30.849Z,99695.72
2022-11-16T18:55:58.274Z,99690.66
2022-11-16T18:58:49.248Z,99699.78
2022-11-16T19:01:14.388Z,99687.50
2022-11-16T19:03:41.067Z,99661.06
2022-11-16T19:06:08.721Z,99658.13
2022-11-16T19:08:36.231Z,99668.34
2022-11-16T19:11:14.057Z,99670.50
2022-11-16T19:13:41.609Z,99666.50
2022-11-16T19:16:09.573Z,99665.75
2022-11-16T19:18:36.501Z,99652.00
2022-11-16T19:21:07.568Z,99617.50
2022-11-16T19:23:38.741Z,99622.78
2022-11-16T19:26:05.740Z,99589.59
2022-11-16T19:28:39.740Z,99621.44
2022-11-16T19:31:18.239Z,99619.03
2022-11-16T19:33:45.373Z,99586.06
2022-11-16T19:36:13.404Z,99613.53
2022-11-16T19:38:39.811Z,99593.34
2022-11-16T19:41:07.083Z,99605.41
2022-11-16T19:43:34.427Z,99586.63
2022-11-16T19:46:12.180Z,99580.81
2022-11-16T19:48:38.630Z,99541.94
2022-11-16T19:51:05.850Z,99578.25
2022-11-16T19:53:32.766Z,99542.44
2022-11-16T19:55:59.485Z,99571.00
2022-11-16T19:58:25.907Z,99509.69
2022-11-16T20:00:52.324Z,99516.72
2022-11-16T20:03:18.703Z,99527.16
2022-11-16T20:05:45.058Z,99526.41
2022-11-16T20:08:11.455Z,99507.63
2022-11-16T20:10:37.980Z,99525.88
2022-11-16T20:13:04.387Z,99513.94
2022-11-16T20:15:30.795Z,99496.38
2022-11-16T20:17:57.160Z,99513.84
2022-11-16T20:20:23.513Z,99495.25
2022-11-16T20:22:50.721Z,99465.53
2022-11-16T20:25:17.766Z,99504.25
2022-11-16T20:27:44.157Z,99467.53
2022-11-16T20:30:11.091Z,99468.94
2022-11-16T20:32:37.451Z,99468.63
2022-11-16T20:35:03.935Z,99500.56
2022-11-16T20:37:30.288Z,99447.41
2022-11-16T20:39:57.142Z,99490.25
2022-11-16T20:42:23.931Z,99464.66
2022-11-16T20:44:50.306Z,99458.91
2022-11-16T20:47:16.684Z,99468.88
2022-11-16T20:49:43.071Z,99457.72
2022-11-16T20:52:09.461Z,99429.97
2022-11-16T20:54:35.891Z,99470.78
2022-11-16T20:57:02.337Z,99454.59
2022-11-16T20:59:28.704Z,99440.81
2022-11-16T21:01:55.182Z,99409.44
2022-11-16T21:04:21.908Z,99437.47
2022-11-16T21:06:48.314Z,99441.44
2022-11-16T21:09:22.481Z,99434.94
2022-11-16T21:12:07.502Z,99408.16
2022-11-16T21:14:33.932Z,99363.81
2022-11-16T21:17:00.290Z,99395.63
2022-11-16T21:19:26.663Z,99387.44
2022-11-16T21:21:53.017Z,99384.25
2022-11-16T21:24:19.372Z,99395.66
2022-11-16T21:26:45.729Z,99391.69
2022-11-16T21:29:12.143Z,99373.13
2022-11-16T21:31:38.514Z,99361.75
2022-11-16T21:34:05.766Z,99376.75
2022-11-16T21:36:32.306Z,99329.84
2022-11-16T21:38:59.047Z,99288.53
2022-11-16T21:41:25.863Z,99378.56
2022-11-16T21:43:52.297Z,99350.84
2022-11-16T21:46:24.681Z,99351.44
2022-11-16T21:48:52.656Z,99311.97
2022-11-16T21:51:20.454Z,99292.38
2022-11-16T21:53:47.333Z,99336.31
2022-11-16T21:56:15.345Z,99328.16
2022-11-16T21:58:42.122Z,99324.16
2022-11-16T22:01:09.328Z,99317.00
2022-11-16T22:03:36.023Z,99295.44
2022-11-16T22:06:22.795Z,99315.19
2022-11-16T22:08:49.204Z,99297.22
2022-11-16T22:11:16.060Z,99282.69
2022-11-16T22:13:42.826Z,99271.13
2022-11-16T22:16:12.532Z,99262.78
2022-11-16T22:18:39.441Z,99290.69
2022-11-16T22:21:05.921Z,99262.38
2022-11-16T22:23:32.831Z,99255.22
2022-11-16T22:26:07.246Z,99223.91
2022-11-16T22:28:34.520Z,99249.44
2022-11-16T22:31:06.031Z,99215.75
2022-11-16T22:33:33.191Z,99233.09
2022-11-16T22:35:59.860Z,99198.41
2022-11-16T22:38:26.311Z,99163.94
2022-11-16T22:40:54.782Z,99176.50
2022-11-16T22:43:22.669Z,99200.19
2022-11-16T22:45:49.171Z,99175.91
2022-11-16T22:48:15.793Z,99145.22
2022-11-16T22:50:42.526Z,99175.28
2022-11-16T22:53:09.865Z,99137.06
2022-11-16T22:55:37.751Z,99120.09
2022-11-16T22:58:04.631Z,99162.53
2022-11-16T23:00:31.199Z,99100.38
2022-11-16T23:02:57.744Z,99109.97
2022-11-16T23:05:24.343Z,99148.19
2022-11-16T23:07:50.703Z,99109.56
2022-11-16T23:10:17.907Z,99076.50
2022-11-16T23:13:02.869Z,99084.06
2022-11-16T23:15:47.900Z,99098.00
2022-11-16T23:18:14.459Z,99090.44
2022-11-16T23:20:59.642Z,99085.06
2022-11-16T23:23:44.736Z,99076.72
2022-11-16T23:26:47.772Z,99085.47
2022-11-16T23:29:14.144Z,99096.63
2022-11-16T23:31:40.487Z,99054.59
2022-11-16T23:34:06.843Z,99049.03
2022-11-16T23:36:33.198Z,99024.75
2022-11-16T23:38:59.566Z,99033.50
2022-11-16T23:41:44.671Z,99032.28
2022-11-16T23:44:11.096Z,99032.09
2022-11-16T23:46:37.451Z,99030.09
2022-11-16T23:49:03.812Z,99000.25
2022-11-16T23:51:30.185Z,98989.09
2022-11-16T23:53:56.606Z,98944.16
2022-11-16T23:56:23.262Z,98993.84
2022-11-16T23:58:49.696Z,98958.44
